DLH175 ESGG-EDDF
Flight info
| Callsign | DLH175 |
|---|---|
| Flight time | N/A |
| Altitude | 36000 |
| Route | VADIN DCT RIMET/N0421F310 T157 KOKEB/N0374F230 T157 KERAX KERAX5D |
| Aircraft | A320/M-SDE3FGHIRWY/LB1 |
Departure
| Time | 2026-04-30 14:25 |
|---|---|
| Airport | Göteborg Landvetter Airport (ESGG) |
Arrival
| Time | N/A |
|---|---|
| Airport | Frankfurt Main Airport (EDDF) |
| Time | Latitude | Longitude | Altitude | Speed | Heading |
|---|---|---|---|---|---|
| 2026-04-30 13:49 | 57.66887 | 12.29426 | 516 ft | 0 kts | 116° |
| 2026-04-30 14:15 | 57.66887 | 12.29423 | 517 ft | 2 kts | 116° |
| 2026-04-30 14:15 | 57.66893 | 12.29400 | 517 ft | 2 kts | 114° |
| 2026-04-30 14:15 | 57.66899 | 12.29377 | 517 ft | 2 kts | 112° |
| 2026-04-30 14:15 | 57.66903 | 12.29356 | 517 ft | 2 kts | 108° |
| 2026-04-30 14:16 | 57.66907 | 12.29333 | 517 ft | 2 kts | 99° |
| 2026-04-30 14:16 | 57.66908 | 12.29311 | 517 ft | 2 kts | 78° |
| 2026-04-30 14:16 | 57.66905 | 12.29293 | 517 ft | 2 kts | 51° |
| 2026-04-30 14:16 | 57.66898 | 12.29279 | 517 ft | 1 kts | 35° |
| 2026-04-30 14:17 | 57.66892 | 12.29272 | 516 ft | 1 kts | 30° |
| 2026-04-30 14:17 | 57.66887 | 12.29266 | 516 ft | 1 kts | 28° |
| 2026-04-30 14:17 | 57.66882 | 12.29261 | 516 ft | 1 kts | 26° |
| 2026-04-30 14:17 | 57.66877 | 12.29256 | 516 ft | 0 kts | 26° |
| 2026-04-30 14:19 | 57.66879 | 12.29258 | 516 ft | 2 kts | 26° |
| 2026-04-30 14:20 | 57.66906 | 12.29283 | 516 ft | 7 kts | 26° |
| 2026-04-30 14:20 | 57.66958 | 12.29330 | 516 ft | 8 kts | 25° |
| 2026-04-30 14:20 | 57.67042 | 12.29192 | 516 ft | 11 kts | 360° |
| 2026-04-30 14:21 | 57.67116 | 12.29252 | 516 ft | 11 kts | 27° |
| 2026-04-30 14:21 | 57.67182 | 12.29313 | 516 ft | 10 kts | 26° |
| 2026-04-30 14:21 | 57.67290 | 12.29409 | 516 ft | 7 kts | 25° |
| 2026-04-30 14:22 | 57.67331 | 12.29448 | 516 ft | 6 kts | 27° |
| 2026-04-30 14:22 | 57.67407 | 12.29473 | 516 ft | 8 kts | 332° |
| 2026-04-30 14:22 | 57.67439 | 12.29370 | 516 ft | 11 kts | 296° |
| 2026-04-30 14:23 | 57.67455 | 12.29306 | 516 ft | 0 kts | 291° |
| 2026-04-30 14:23 | 57.67460 | 12.29196 | 515 ft | 9 kts | 263° |
| 2026-04-30 14:24 | 57.67352 | 12.28953 | 515 ft | 23 kts | 206° |
| 2026-04-30 14:24 | 57.67004 | 12.28636 | 514 ft | 89 kts | 205° |
| 2026-04-30 14:25 | 57.65254 | 12.27047 | 800 ft | 165 kts | 209° |
| 2026-04-30 14:25 | 57.63237 | 12.25208 | 2113 ft | 179 kts | 209° |
| 2026-04-30 14:26 | 57.60794 | 12.23191 | 2893 ft | 210 kts | 194° |
| 2026-04-30 14:26 | 57.59285 | 12.22776 | 3288 ft | 229 kts | 186° |
| 2026-04-30 14:26 | 57.55858 | 12.22418 | 4294 ft | 264 kts | 183° |
| 2026-04-30 14:27 | 57.53969 | 12.22199 | 4924 ft | 278 kts | 185° |
| 2026-04-30 14:27 | 57.52024 | 12.21872 | 5725 ft | 283 kts | 187° |
| 2026-04-30 14:27 | 57.50052 | 12.21485 | 6616 ft | 287 kts | 186° |
| 2026-04-30 14:28 | 57.46714 | 12.20780 | 7958 ft | 294 kts | 187° |
| 2026-04-30 14:28 | 57.44706 | 12.19984 | 8737 ft | 297 kts | 201° |
| 2026-04-30 14:28 | 57.42855 | 12.18255 | 9528 ft | 300 kts | 216° |
| 2026-04-30 14:28 | 57.41285 | 12.15703 | 10306 ft | 302 kts | 228° |
| 2026-04-30 14:29 | 57.38245 | 12.09901 | 11259 ft | 329 kts | 227° |
| 2026-04-30 14:29 | 57.34868 | 12.03558 | 12041 ft | 358 kts | 226° |
| 2026-04-30 14:30 | 57.29491 | 11.93519 | 13982 ft | 373 kts | 226° |
| 2026-04-30 14:31 | 57.25798 | 11.86643 | 15170 ft | 380 kts | 226° |
| 2026-04-30 14:31 | 57.22041 | 11.79669 | 16373 ft | 386 kts | 226° |
| 2026-04-30 14:31 | 57.20138 | 11.76152 | 16977 ft | 388 kts | 226° |
| 2026-04-30 14:32 | 57.16266 | 11.69111 | 18156 ft | 394 kts | 221° |
| 2026-04-30 14:32 | 57.14021 | 11.66187 | 18738 ft | 398 kts | 210° |
| 2026-04-30 14:32 | 57.11489 | 11.64104 | 19238 ft | 401 kts | 198° |
| 2026-04-30 14:33 | 57.08763 | 11.62941 | 19737 ft | 404 kts | 188° |
| 2026-04-30 14:33 | 57.03167 | 11.61397 | 20721 ft | 410 kts | 188° |
| 2026-04-30 14:33 | 57.00341 | 11.60601 | 21224 ft | 413 kts | 188° |
| 2026-04-30 14:34 | 56.97494 | 11.59797 | 21722 ft | 415 kts | 189° |
| 2026-04-30 14:34 | 56.94625 | 11.58987 | 22214 ft | 418 kts | 189° |
| 2026-04-30 14:34 | 56.91758 | 11.58178 | 22699 ft | 421 kts | 189° |
| 2026-04-30 14:34 | 56.88834 | 11.57354 | 23185 ft | 424 kts | 189° |
| 2026-04-30 14:35 | 56.82963 | 11.55714 | 24087 ft | 430 kts | 189° |
| 2026-04-30 14:35 | 56.79999 | 11.54893 | 24464 ft | 432 kts | 189° |
| 2026-04-30 14:35 | 56.77018 | 11.54071 | 24842 ft | 434 kts | 189° |
| 2026-04-30 14:36 | 56.74027 | 11.53245 | 25218 ft | 436 kts | 189° |
| 2026-04-30 14:36 | 56.71019 | 11.52414 | 25584 ft | 438 kts | 189° |
| 2026-04-30 14:36 | 56.68003 | 11.51577 | 25946 ft | 439 kts | 189° |
| 2026-04-30 14:36 | 56.64978 | 11.50738 | 26284 ft | 441 kts | 189° |
| 2026-04-30 14:37 | 56.61935 | 11.49897 | 26630 ft | 443 kts | 189° |
| 2026-04-30 14:37 | 56.58883 | 11.49057 | 26966 ft | 445 kts | 189° |
| 2026-04-30 14:37 | 56.55815 | 11.48218 | 27298 ft | 447 kts | 189° |
| 2026-04-30 14:37 | 56.52733 | 11.47374 | 27617 ft | 449 kts | 189° |
| 2026-04-30 14:38 | 56.49637 | 11.46521 | 27940 ft | 450 kts | 189° |
| 2026-04-30 14:38 | 56.46531 | 11.45664 | 28256 ft | 452 kts | 189° |
| 2026-04-30 14:38 | 56.43419 | 11.44807 | 28562 ft | 454 kts | 189° |
| 2026-04-30 14:38 | 56.40284 | 11.43949 | 28860 ft | 456 kts | 189° |
| 2026-04-30 14:39 | 56.37145 | 11.43093 | 29154 ft | 458 kts | 189° |
| 2026-04-30 14:39 | 56.33988 | 11.42241 | 29435 ft | 459 kts | 189° |
| 2026-04-30 14:39 | 56.30818 | 11.41386 | 29716 ft | 461 kts | 189° |
| 2026-04-30 14:40 | 56.24452 | 11.39666 | 30238 ft | 464 kts | 189° |
| 2026-04-30 14:40 | 56.21254 | 11.38800 | 30497 ft | 466 kts | 189° |
| 2026-04-30 14:40 | 56.18046 | 11.37933 | 30709 ft | 467 kts | 189° |
| 2026-04-30 14:40 | 56.14824 | 11.37064 | 30915 ft | 469 kts | 189° |
| 2026-04-30 14:41 | 56.11591 | 11.36193 | 31114 ft | 470 kts | 189° |
| 2026-04-30 14:41 | 56.08355 | 11.35323 | 31304 ft | 471 kts | 189° |
| 2026-04-30 14:41 | 56.05110 | 11.34455 | 31501 ft | 472 kts | 189° |
| 2026-04-30 14:41 | 56.01860 | 11.33591 | 31722 ft | 472 kts | 189° |
| 2026-04-30 14:42 | 55.98615 | 11.32728 | 32001 ft | 471 kts | 189° |
| 2026-04-30 14:42 | 55.95374 | 11.31863 | 32266 ft | 470 kts | 189° |
| 2026-04-30 14:42 | 55.92143 | 11.31001 | 32528 ft | 470 kts | 189° |
| 2026-04-30 14:42 | 55.88914 | 11.30143 | 32781 ft | 469 kts | 189° |
| 2026-04-30 14:43 | 55.85689 | 11.29296 | 33038 ft | 468 kts | 189° |
| 2026-04-30 14:43 | 55.82465 | 11.28452 | 33290 ft | 468 kts | 189° |
| 2026-04-30 14:43 | 55.79242 | 11.27608 | 33534 ft | 467 kts | 189° |
| 2026-04-30 14:43 | 55.76031 | 11.26762 | 33793 ft | 467 kts | 189° |
| 2026-04-30 14:44 | 55.72776 | 11.25901 | 34052 ft | 466 kts | 189° |
| 2026-04-30 14:44 | 55.69566 | 11.25050 | 34312 ft | 465 kts | 189° |
| 2026-04-30 14:44 | 55.66410 | 11.24214 | 34557 ft | 465 kts | 189° |
| 2026-04-30 14:44 | 55.63209 | 11.23375 | 34771 ft | 464 kts | 189° |
| 2026-04-30 14:45 | 55.60014 | 11.22541 | 34981 ft | 464 kts | 189° |
| 2026-04-30 14:45 | 55.56776 | 11.21698 | 35177 ft | 464 kts | 189° |
| 2026-04-30 14:45 | 55.53586 | 11.20868 | 35365 ft | 464 kts | 189° |
| 2026-04-30 14:45 | 55.50389 | 11.20038 | 35550 ft | 463 kts | 188° |
| 2026-04-30 14:46 | 55.47202 | 11.19212 | 35737 ft | 463 kts | 189° |
| 2026-04-30 14:46 | 55.44015 | 11.18384 | 35915 ft | 463 kts | 189° |
| 2026-04-30 14:46 | 55.40827 | 11.17557 | 36078 ft | 462 kts | 188° |
| 2026-04-30 14:46 | 55.37646 | 11.16735 | 36243 ft | 462 kts | 188° |
| 2026-04-30 14:47 | 55.34469 | 11.15916 | 36410 ft | 462 kts | 188° |
| 2026-04-30 14:47 | 55.31297 | 11.15096 | 36463 ft | 459 kts | 188° |
| 2026-04-30 14:47 | 55.24981 | 11.13472 | 36460 ft | 459 kts | 188° |
| 2026-04-30 14:48 | 55.18671 | 11.11859 | 36465 ft | 459 kts | 188° |
| 2026-04-30 14:48 | 55.12351 | 11.10235 | 36466 ft | 459 kts | 188° |
| 2026-04-30 14:49 | 55.06034 | 11.08627 | 36464 ft | 459 kts | 188° |
| 2026-04-30 14:49 | 54.99712 | 11.07028 | 36475 ft | 459 kts | 188° |
| 2026-04-30 14:50 | 54.90235 | 11.04636 | 36470 ft | 459 kts | 188° |
| 2026-04-30 14:51 | 54.80753 | 11.02254 | 36473 ft | 459 kts | 188° |
| 2026-04-30 14:52 | 54.71274 | 10.99883 | 36478 ft | 459 kts | 188° |
| 2026-04-30 14:52 | 54.61742 | 10.97495 | 36485 ft | 459 kts | 188° |
| 2026-04-30 14:53 | 54.52250 | 10.95147 | 36481 ft | 460 kts | 188° |
| 2026-04-30 14:54 | 54.39593 | 10.92025 | 36478 ft | 460 kts | 188° |
| 2026-04-30 14:55 | 54.30092 | 10.89689 | 36479 ft | 460 kts | 188° |
| 2026-04-30 14:56 | 54.17415 | 10.86591 | 36486 ft | 460 kts | 187° |
| 2026-04-30 14:57 | 54.07908 | 10.84280 | 36487 ft | 460 kts | 187° |
| 2026-04-30 14:58 | 53.95225 | 10.81229 | 36474 ft | 460 kts | 187° |
| 2026-04-30 14:58 | 53.85709 | 10.78945 | 36471 ft | 461 kts | 187° |
| 2026-04-30 15:00 | 53.69835 | 10.75156 | 36476 ft | 461 kts | 187° |
| 2026-04-30 15:01 | 53.57114 | 10.72145 | 36479 ft | 462 kts | 187° |
| 2026-04-30 15:01 | 53.47561 | 10.69901 | 36484 ft | 462 kts | 187° |
| 2026-04-30 15:02 | 53.41192 | 10.68403 | 36483 ft | 462 kts | 187° |
| 2026-04-30 15:03 | 53.26278 | 10.64910 | 36480 ft | 463 kts | 187° |
| 2026-04-30 15:04 | 53.10305 | 10.61202 | 36472 ft | 464 kts | 186° |
| 2026-04-30 15:06 | 52.94301 | 10.57524 | 36483 ft | 464 kts | 186° |
| 2026-04-30 15:07 | 52.81501 | 10.54593 | 36475 ft | 465 kts | 186° |
| 2026-04-30 15:08 | 52.68679 | 10.51682 | 36473 ft | 465 kts | 186° |
| 2026-04-30 15:09 | 52.52641 | 10.48061 | 36474 ft | 466 kts | 186° |
| 2026-04-30 15:10 | 52.39799 | 10.45187 | 36477 ft | 466 kts | 186° |
| 2026-04-30 15:11 | 52.20530 | 10.40883 | 36460 ft | 466 kts | 186° |
| 2026-04-30 15:13 | 52.04461 | 10.37343 | 36448 ft | 467 kts | 186° |
| 2026-04-30 15:14 | 51.81896 | 10.32403 | 36455 ft | 468 kts | 185° |
| 2026-04-30 15:17 | 51.52813 | 10.26123 | 36463 ft | 469 kts | 185° |
| 2026-04-30 15:19 | 51.26874 | 10.21774 | 35162 ft | 468 kts | 177° |